sensor_id;sensor_type;location;lat;lon;timestamp;pressure;altitude;pressure_sealevel;temperature;humidity
6389;BME280;3227;42.654;23.360;2023-02-04T00:01:35;94221.28;;;3.45;79.13
6389;BME280;3227;42.654;23.360;2023-02-04T00:04:01;94213.75;;;3.50;78.33
6389;BME280;3227;42.654;23.360;2023-02-04T00:06:28;94212.03;;;3.49;79.34
6389;BME280;3227;42.654;23.360;2023-02-04T00:08:55;94207.31;;;2.89;84.11
6389;BME280;3227;42.654;23.360;2023-02-04T00:11:23;94198.56;;;2.75;85.79
6389;BME280;3227;42.654;23.360;2023-02-04T00:13:50;94209.25;;;2.63;87.33
6389;BME280;3227;42.654;23.360;2023-02-04T00:16:17;94200.53;;;2.52;87.81
6389;BME280;3227;42.654;23.360;2023-02-04T00:18:43;94195.75;;;2.62;87.98
6389;BME280;3227;42.654;23.360;2023-02-04T00:21:10;94195.41;;;2.49;88.63
6389;BME280;3227;42.654;23.360;2023-02-04T00:23:37;94175.06;;;2.80;87.12
6389;BME280;3227;42.654;23.360;2023-02-04T00:26:04;94193.91;;;2.57;88.80
6389;BME280;3227;42.654;23.360;2023-02-04T00:28:32;94191.31;;;2.54;88.56
6389;BME280;3227;42.654;23.360;2023-02-04T00:30:59;94168.03;;;2.33;90.00
6389;BME280;3227;42.654;23.360;2023-02-04T00:33:26;94177.59;;;2.80;88.11
6389;BME280;3227;42.654;23.360;2023-02-04T00:35:53;94173.56;;;2.88;87.81
6389;BME280;3227;42.654;23.360;2023-02-04T00:38:20;94183.03;;;2.95;86.78
6389;BME280;3227;42.654;23.360;2023-02-04T00:40:48;94186.28;;;2.91;86.95
6389;BME280;3227;42.654;23.360;2023-02-04T00:43:14;94180.16;;;2.82;87.60
6389;BME280;3227;42.654;23.360;2023-02-04T00:45:43;94160.19;;;2.92;85.99
6389;BME280;3227;42.654;23.360;2023-02-04T00:48:09;94173.16;;;3.08;86.13
6389;BME280;3227;42.654;23.360;2023-02-04T00:50:36;94186.03;;;3.17;85.53
6389;BME280;3227;42.654;23.360;2023-02-04T00:53:04;94179.28;;;3.17;85.74
6389;BME280;3227;42.654;23.360;2023-02-04T00:55:31;94176.03;;;3.23;85.70
6389;BME280;3227;42.654;23.360;2023-02-04T00:57:58;94162.13;;;3.43;83.39
6389;BME280;3227;42.654;23.360;2023-02-04T01:00:25;94166.66;;;3.58;83.47
6389;BME280;3227;42.654;23.360;2023-02-04T01:02:53;94166.78;;;3.65;83.04
6389;BME280;3227;42.654;23.360;2023-02-04T01:05:20;94166.75;;;3.62;82.78
6389;BME280;3227;42.654;23.360;2023-02-04T01:07:46;94153.81;;;3.50;83.21
6389;BME280;3227;42.654;23.360;2023-02-04T01:10:13;94137.03;;;3.54;82.62
6389;BME280;3227;42.654;23.360;2023-02-04T01:12:42;94151.03;;;3.80;81.88
6389;BME280;3227;42.654;23.360;2023-02-04T01:15:09;94130.78;;;3.81;81.41
6389;BME280;3227;42.654;23.360;2023-02-04T01:17:36;94128.34;;;3.85;80.47
6389;BME280;3227;42.654;23.360;2023-02-04T01:20:05;94132.50;;;3.82;81.31
6389;BME280;3227;42.654;23.360;2023-02-04T01:22:31;94123.63;;;3.59;82.89
6389;BME280;3227;42.654;23.360;2023-02-04T01:24:58;94101.38;;;3.46;82.61
6389;BME280;3227;42.654;23.360;2023-02-04T01:27:25;94116.06;;;3.61;82.80
6389;BME280;3227;42.654;23.360;2023-02-04T01:29:52;94112.81;;;3.68;81.90
6389;BME280;3227;42.654;23.360;2023-02-04T01:32:19;94114.66;;;3.76;81.63
6389;BME280;3227;42.654;23.360;2023-02-04T01:34:45;94110.63;;;3.88;81.06
6389;BME280;3227;42.654;23.360;2023-02-04T01:37:33;94109.03;;;3.93;80.43
6389;BME280;3227;42.654;23.360;2023-02-04T01:40:00;94094.56;;;3.87;80.82
6389;BME280;3227;42.654;23.360;2023-02-04T01:42:27;94096.28;;;3.88;80.87
6389;BME280;3227;42.654;23.360;2023-02-04T01:44:54;94035.72;;;3.55;80.67
6389;BME280;3227;42.654;23.360;2023-02-04T01:47:21;94081.91;;;3.86;80.26
6389;BME280;3227;42.654;23.360;2023-02-04T01:49:51;94088.78;;;3.93;80.40
6389;BME280;3227;42.654;23.360;2023-02-04T01:52:20;94080.44;;;4.00;79.76
6389;BME280;3227;42.654;23.360;2023-02-04T01:54:50;94076.31;;;4.06;79.23
6389;BME280;3227;42.654;23.360;2023-02-04T01:57:22;94081.50;;;4.12;78.59
6389;BME280;3227;42.654;23.360;2023-02-04T01:59:51;94071.44;;;4.17;78.61
6389;BME280;3227;42.654;23.360;2023-02-04T02:02:37;94078.22;;;4.18;77.31
6389;BME280;3227;42.654;23.360;2023-02-04T02:05:06;94067.25;;;4.19;77.29
6389;BME280;3227;42.654;23.360;2023-02-04T02:07:33;94069.69;;;4.14;77.55
6389;BME280;3227;42.654;23.360;2023-02-04T02:10:02;94082.16;;;4.01;78.09
6389;BME280;3227;42.654;23.360;2023-02-04T02:12:29;94071.25;;;4.06;78.16
6389;BME280;3227;42.654;23.360;2023-02-04T02:14:56;94079.78;;;4.10;77.96
6389;BME280;3227;42.654;23.360;2023-02-04T02:17:23;94060.06;;;3.94;78.55
6389;BME280;3227;42.654;23.360;2023-02-04T02:19:49;94054.34;;;4.05;77.08
6389;BME280;3227;42.654;23.360;2023-02-04T02:22:19;94061.13;;;4.06;77.78
6389;BME280;3227;42.654;23.360;2023-02-04T02:24:50;94045.78;;;3.99;77.63
6389;BME280;3227;42.654;23.360;2023-02-04T02:27:17;94006.19;;;3.56;77.96
6389;BME280;3227;42.654;23.360;2023-02-04T02:29:44;94030.03;;;3.67;79.76
6389;BME280;3227;42.654;23.360;2023-02-04T02:32:12;94032.53;;;3.65;79.44
6389;BME280;3227;42.654;23.360;2023-02-04T02:34:40;94002.22;;;3.70;78.18
6389;BME280;3227;42.654;23.360;2023-02-04T02:37:08;93994.66;;;3.73;79.16
6389;BME280;3227;42.654;23.360;2023-02-04T02:39:36;93977.75;;;3.72;78.86
6389;BME280;3227;42.654;23.360;2023-02-04T02:42:05;93984.59;;;3.76;79.00
6389;BME280;3227;42.654;23.360;2023-02-04T02:44:32;93983.84;;;3.83;77.80
6389;BME280;3227;42.654;23.360;2023-02-04T02:47:00;93971.31;;;3.91;77.30
6389;BME280;3227;42.654;23.360;2023-02-04T02:49:30;93862.28;;;3.32;77.58
6389;BME280;3227;42.654;23.360;2023-02-04T02:51:59;93973.94;;;3.97;77.48
6389;BME280;3227;42.654;23.360;2023-02-04T02:54:28;93978.91;;;3.91;77.49
6389;BME280;3227;42.654;23.360;2023-02-04T02:56:56;93978.13;;;3.93;76.62
6389;BME280;3227;42.654;23.360;2023-02-04T02:59:25;93952.00;;;3.99;76.57
6389;BME280;3227;42.654;23.360;2023-02-04T03:01:55;93969.66;;;3.93;77.04
6389;BME280;3227;42.654;23.360;2023-02-04T03:04:24;93980.44;;;3.81;77.62
6389;BME280;3227;42.654;23.360;2023-02-04T03:06:52;93974.06;;;3.55;78.60
6389;BME280;3227;42.654;23.360;2023-02-04T03:09:20;93976.75;;;3.62;78.88
6389;BME280;3227;42.654;23.360;2023-02-04T03:11:48;93970.97;;;3.23;80.50
6389;BME280;3227;42.654;23.360;2023-02-04T03:14:15;93980.38;;;3.28;80.68
6389;BME280;3227;42.654;23.360;2023-02-04T03:16:44;93972.91;;;3.36;80.23
6389;BME280;3227;42.654;23.360;2023-02-04T03:19:13;93936.69;;;2.93;80.24
6389;BME280;3227;42.654;23.360;2023-02-04T03:21:40;93977.00;;;3.28;80.36
6389;BME280;3227;42.654;23.360;2023-02-04T03:24:07;93977.41;;;3.51;79.78
6389;BME280;3227;42.654;23.360;2023-02-04T03:26:34;93921.31;;;3.29;78.46
6389;BME280;3227;42.654;23.360;2023-02-04T03:29:01;93982.03;;;3.74;78.59
6389;BME280;3227;42.654;23.360;2023-02-04T03:31:28;93970.22;;;3.75;78.16
6389;BME280;3227;42.654;23.360;2023-02-04T03:33:56;93978.75;;;3.81;78.04
6389;BME280;3227;42.654;23.360;2023-02-04T03:36:23;93966.19;;;3.89;77.48
6389;BME280;3227;42.654;23.360;2023-02-04T03:38:50;93965.59;;;4.04;77.08
6389;BME280;3227;42.654;23.360;2023-02-04T03:41:18;93966.56;;;4.10;75.75
6389;BME280;3227;42.654;23.360;2023-02-04T03:43:45;93964.13;;;4.18;75.34
6389;BME280;3227;42.654;23.360;2023-02-04T03:46:12;93970.91;;;4.19;75.94
6389;BME280;3227;42.654;23.360;2023-02-04T03:48:38;93956.50;;;4.16;75.68
6389;BME280;3227;42.654;23.360;2023-02-04T03:51:07;93959.13;;;4.24;75.24
6389;BME280;3227;42.654;23.360;2023-02-04T03:53:33;93948.91;;;4.18;74.90
6389;BME280;3227;42.654;23.360;2023-02-04T03:56:00;93923.47;;;4.10;74.88
6389;BME280;3227;42.654;23.360;2023-02-04T03:58:27;93945.78;;;4.34;74.78
6389;BME280;3227;42.654;23.360;2023-02-04T04:00:54;93928.88;;;4.35;74.77
6389;BME280;3227;42.654;23.360;2023-02-04T04:03:21;93930.56;;;4.37;74.47
6389;BME280;3227;42.654;23.360;2023-02-04T04:05:47;93913.72;;;4.41;74.08
6389;BME280;3227;42.654;23.360;2023-02-04T04:08:16;93908.38;;;4.21;74.72
6389;BME280;3227;42.654;23.360;2023-02-04T04:10:42;93894.88;;;4.22;74.73
6389;BME280;3227;42.654;23.360;2023-02-04T04:13:09;93894.75;;;4.11;75.42
6389;BME280;3227;42.654;23.360;2023-02-04T04:15:36;93886.16;;;4.02;74.94
6389;BME280;3227;42.654;23.360;2023-02-04T04:18:03;93886.41;;;3.61;76.74
6389;BME280;3227;42.654;23.360;2023-02-04T04:20:30;93891.75;;;3.27;79.06
6389;BME280;3227;42.654;23.360;2023-02-04T04:22:57;93901.03;;;3.28;79.74
6389;BME280;3227;42.654;23.360;2023-02-04T04:25:25;93888.06;;;3.10;80.34
6389;BME280;3227;42.654;23.360;2023-02-04T04:27:52;93883.75;;;3.04;81.05
6389;BME280;3227;42.654;23.360;2023-02-04T04:30:19;93893.88;;;3.05;81.75
6389;BME280;3227;42.654;23.360;2023-02-04T04:32:45;93894.88;;;3.14;81.62
6389;BME280;3227;42.654;23.360;2023-02-04T04:35:12;93900.69;;;3.08;82.29
6389;BME280;3227;42.654;23.360;2023-02-04T04:37:39;93856.84;;;2.64;82.74
6389;BME280;3227;42.654;23.360;2023-02-04T04:40:07;93902.31;;;3.06;82.66
6389;BME280;3227;42.654;23.360;2023-02-04T04:42:36;93914.44;;;3.22;81.58
6389;BME280;3227;42.654;23.360;2023-02-04T04:45:05;93888.06;;;3.10;81.45
6389;BME280;3227;42.654;23.360;2023-02-04T04:47:32;93927.88;;;3.18;81.60
6389;BME280;3227;42.654;23.360;2023-02-04T04:49:58;93926.91;;;3.13;82.07
6389;BME280;3227;42.654;23.360;2023-02-04T04:52:25;93928.72;;;3.19;82.65
6389;BME280;3227;42.654;23.360;2023-02-04T04:54:52;93925.75;;;3.42;81.28
6389;BME280;3227;42.654;23.360;2023-02-04T04:57:19;93926.94;;;3.61;80.36
6389;BME280;3227;42.654;23.360;2023-02-04T04:59:47;93919.31;;;3.61;79.66
6389;BME280;3227;42.654;23.360;2023-02-04T05:02:14;93913.38;;;3.59;79.45
6389;BME280;3227;42.654;23.360;2023-02-04T05:04:40;93928.72;;;3.68;79.31
6389;BME280;3227;42.654;23.360;2023-02-04T05:07:07;93926.22;;;3.70;79.22
6389;BME280;3227;42.654;23.360;2023-02-04T05:09:34;93925.44;;;3.74;80.04
6389;BME280;3227;42.654;23.360;2023-02-04T05:12:01;93885.03;;;3.29;80.78
6389;BME280;3227;42.654;23.360;2023-02-04T05:14:28;93924.00;;;3.37;82.74
6389;BME280;3227;42.654;23.360;2023-02-04T05:16:56;93901.03;;;3.28;82.33
6389;BME280;3227;42.654;23.360;2023-02-04T05:19:23;93930.69;;;3.35;83.39
6389;BME280;3227;42.654;23.360;2023-02-04T05:21:50;93934.69;;;3.21;84.14
6389;BME280;3227;42.654;23.360;2023-02-04T05:24:16;93926.78;;;3.05;84.95
6389;BME280;3227;42.654;23.360;2023-02-04T05:26:43;93941.22;;;3.10;85.64
6389;BME280;3227;42.654;23.360;2023-02-04T05:29:10;93936.88;;;3.02;86.58
6389;BME280;3227;42.654;23.360;2023-02-04T05:31:37;93930.66;;;2.88;88.59
6389;BME280;3227;42.654;23.360;2023-02-04T05:34:05;93957.69;;;2.88;89.35
6389;BME280;3227;42.654;23.360;2023-02-04T05:36:31;93969.59;;;2.93;90.01
6389;BME280;3227;42.654;23.360;2023-02-04T05:38:58;93955.56;;;3.11;90.05
6389;BME280;3227;42.654;23.360;2023-02-04T05:41:25;93967.09;;;3.41;88.31
6389;BME280;3227;42.654;23.360;2023-02-04T05:43:52;93959.84;;;3.63;87.77
6389;BME280;3227;42.654;23.360;2023-02-04T05:46:18;93968.78;;;3.91;86.12
6389;BME280;3227;42.654;23.360;2023-02-04T05:48:45;93974.06;;;4.06;84.29
6389;BME280;3227;42.654;23.360;2023-02-04T05:51:13;93979.44;;;4.24;83.98
6389;BME280;3227;42.654;23.360;2023-02-04T05:53:40;93951.19;;;4.01;82.40
6389;BME280;3227;42.654;23.360;2023-02-04T05:56:07;93958.25;;;4.22;81.54
6389;BME280;3227;42.654;23.360;2023-02-04T05:58:34;93962.63;;;4.32;81.86
6389;BME280;3227;42.654;23.360;2023-02-04T06:01:01;93936.03;;;4.04;80.78
6389;BME280;3227;42.654;23.360;2023-02-04T06:03:29;93952.09;;;4.05;80.88
6389;BME280;3227;42.654;23.360;2023-02-04T06:05:57;93955.81;;;4.27;80.53
6389;BME280;3227;42.654;23.360;2023-02-04T06:08:25;93956.00;;;4.40;79.35
6389;BME280;3227;42.654;23.360;2023-02-04T06:10:52;93946.88;;;4.54;78.18
6389;BME280;3227;42.654;23.360;2023-02-04T06:13:19;93956.38;;;4.71;77.02
6389;BME280;3227;42.654;23.360;2023-02-04T06:15:45;93953.19;;;4.84;76.46
6389;BME280;3227;42.654;23.360;2023-02-04T06:18:12;93950.09;;;5.11;73.85
6389;BME280;3227;42.654;23.360;2023-02-04T06:20:39;93978.03;;;5.12;73.25
6389;BME280;3227;42.654;23.360;2023-02-04T06:23:06;93964.59;;;5.18;72.23
6389;BME280;3227;42.654;23.360;2023-02-04T06:25:34;93909.19;;;4.85;71.15
6389;BME280;3227;42.654;23.360;2023-02-04T06:28:01;93922.78;;;4.90;70.81
6389;BME280;3227;42.654;23.360;2023-02-04T06:30:28;93966.38;;;5.29;71.06
6389;BME280;3227;42.654;23.360;2023-02-04T06:32:54;93979.06;;;5.26;70.52
6389;BME280;3227;42.654;23.360;2023-02-04T06:35:21;93962.91;;;5.21;71.42
6389;BME280;3227;42.654;23.360;2023-02-04T06:37:48;93956.13;;;5.20;71.48
6389;BME280;3227;42.654;23.360;2023-02-04T06:40:15;93963.84;;;5.26;70.49
6389;BME280;3227;42.654;23.360;2023-02-04T06:42:43;93974.81;;;5.25;69.59
6389;BME280;3227;42.654;23.360;2023-02-04T06:45:10;93968.00;;;5.23;69.77
6389;BME280;3227;42.654;23.360;2023-02-04T06:47:37;93944.25;;;5.18;69.71
6389;BME280;3227;42.654;23.360;2023-02-04T06:50:04;93972.38;;;5.36;69.21
6389;BME280;3227;42.654;23.360;2023-02-04T06:52:31;93964.69;;;5.30;68.30
6389;BME280;3227;42.654;23.360;2023-02-04T06:54:58;93967.31;;;5.34;67.85
6389;BME280;3227;42.654;23.360;2023-02-04T06:57:24;93971.34;;;5.20;67.66
6389;BME280;3227;42.654;23.360;2023-02-04T06:59:53;93962.13;;;5.28;67.52
6389;BME280;3227;42.654;23.360;2023-02-04T07:02:19;93954.53;;;5.30;67.80
6389;BME280;3227;42.654;23.360;2023-02-04T07:04:46;93926.53;;;5.22;66.55
6389;BME280;3227;42.654;23.360;2023-02-04T07:07:13;93949.84;;;5.68;67.07
6389;BME280;3227;42.654;23.360;2023-02-04T07:09:40;93869.94;;;5.39;65.64
6389;BME280;3227;42.654;23.360;2023-02-04T07:12:07;93945.94;;;6.09;64.92
6389;BME280;3227;42.654;23.360;2023-02-04T07:14:34;93947.84;;;6.38;63.26
6389;BME280;3227;42.654;23.360;2023-02-04T07:17:02;93947.03;;;6.43;62.91
6389;BME280;3227;42.654;23.360;2023-02-04T07:19:29;93951.28;;;6.46;62.65
6389;BME280;3227;42.654;23.360;2023-02-04T07:21:56;93952.25;;;6.65;61.96
6389;BME280;3227;42.654;23.360;2023-02-04T07:24:23;93949.72;;;6.69;61.81
6389;BME280;3227;42.654;23.360;2023-02-04T07:26:50;93932.78;;;6.73;61.09
6389;BME280;3227;42.654;23.360;2023-02-04T07:29:17;93929.44;;;6.84;61.09
6389;BME280;3227;42.654;23.360;2023-02-04T07:31:44;93901.38;;;6.71;60.75
6389;BME280;3227;42.654;23.360;2023-02-04T07:34:13;93943.88;;;6.93;60.61
6389;BME280;3227;42.654;23.360;2023-02-04T07:36:40;93898.06;;;6.93;59.66
6389;BME280;3227;42.654;23.360;2023-02-04T07:39:07;93937.22;;;7.27;59.02
6389;BME280;3227;42.654;23.360;2023-02-04T07:41:34;93926.22;;;7.39;59.16
6389;BME280;3227;42.654;23.360;2023-02-04T07:44:01;93887.09;;;7.18;57.83
6389;BME280;3227;42.654;23.360;2023-02-04T07:46:28;93931.31;;;7.37;58.17
6389;BME280;3227;42.654;23.360;2023-02-04T07:48:55;93939.81;;;7.50;58.51
6389;BME280;3227;42.654;23.360;2023-02-04T07:51:23;93942.41;;;7.63;57.52
6389;BME280;3227;42.654;23.360;2023-02-04T07:53:50;93890.56;;;7.40;57.37
6389;BME280;3227;42.654;23.360;2023-02-04T07:56:16;93818.31;;;7.14;57.40
6389;BME280;3227;42.654;23.360;2023-02-04T07:58:43;93935.63;;;7.84;57.68
6389;BME280;3227;42.654;23.360;2023-02-04T08:01:10;93940.72;;;7.94;56.87
6389;BME280;3227;42.654;23.360;2023-02-04T08:03:37;93939.88;;;7.91;56.89
6389;BME280;3227;42.654;23.360;2023-02-04T08:06:04;93936.47;;;7.92;56.57
6389;BME280;3227;42.654;23.360;2023-02-04T08:08:32;93950.06;;;7.85;56.69
6389;BME280;3227;42.654;23.360;2023-02-04T08:10:59;93937.31;;;7.63;57.13
6389;BME280;3227;42.654;23.360;2023-02-04T08:13:25;93939.84;;;7.48;58.07
6389;BME280;3227;42.654;23.360;2023-02-04T08:15:52;93860.75;;;7.07;58.09
6389;BME280;3227;42.654;23.360;2023-02-04T08:18:19;93938.97;;;7.51;58.32
6389;BME280;3227;42.654;23.360;2023-02-04T08:20:46;93944.94;;;7.54;58.77
6389;BME280;3227;42.654;23.360;2023-02-04T08:23:13;93942.38;;;7.41;58.98
6389;BME280;3227;42.654;23.360;2023-02-04T08:25:41;93936.41;;;7.40;59.04
6389;BME280;3227;42.654;23.360;2023-02-04T08:28:10;93938.91;;;7.22;59.07
6389;BME280;3227;42.654;23.360;2023-02-04T08:30:36;93938.03;;;7.17;59.71
6389;BME280;3227;42.654;23.360;2023-02-04T08:33:03;93893.78;;;6.84;59.81
6389;BME280;3227;42.654;23.360;2023-02-04T08:35:30;93925.28;;;7.06;60.38
6389;BME280;3227;42.654;23.360;2023-02-04T08:37:57;93932.06;;;7.04;60.57
6389;BME280;3227;42.654;23.360;2023-02-04T08:40:23;93932.06;;;7.10;61.06
6389;BME280;3227;42.654;23.360;2023-02-04T08:42:52;93931.22;;;7.07;61.12
6389;BME280;3227;42.654;23.360;2023-02-04T08:45:18;93924.44;;;7.12;61.12
6389;BME280;3227;42.654;23.360;2023-02-04T08:47:45;93931.25;;;7.13;60.89
6389;BME280;3227;42.654;23.360;2023-02-04T08:50:12;93924.47;;;7.15;61.86
6389;BME280;3227;42.654;23.360;2023-02-04T08:52:39;93924.44;;;7.12;61.42
6389;BME280;3227;42.654;23.360;2023-02-04T08:55:06;93934.66;;;7.15;61.91
6389;BME280;3227;42.654;23.360;2023-02-04T08:57:34;93933.75;;;7.08;62.32
6389;BME280;3227;42.654;23.360;2023-02-04T09:00:03;93676.09;;;5.49;62.31
6389;BME280;3227;42.654;23.360;2023-02-04T09:02:30;93929.53;;;7.12;62.10
6389;BME280;3227;42.654;23.360;2023-02-04T09:04:56;93847.00;;;6.60;62.72
6389;BME280;3227;42.654;23.360;2023-02-04T09:07:38;93933.78;;;7.07;62.09
6389;BME280;3227;42.654;23.360;2023-02-04T09:10:05;93898.03;;;6.85;63.12
6389;BME280;3227;42.654;23.360;2023-02-04T09:12:33;93925.31;;;7.18;62.43
6389;BME280;3227;42.654;23.360;2023-02-04T09:14:59;93862.38;;;6.85;61.79
6389;BME280;3227;42.654;23.360;2023-02-04T09:17:31;93918.53;;;7.26;61.46
6389;BME280;3227;42.654;23.360;2023-02-04T09:19:58;93894.72;;;7.18;59.37
6389;BME280;3227;42.654;23.360;2023-02-04T09:22:26;93911.72;;;7.19;60.27
6389;BME280;3227;42.654;23.360;2023-02-04T09:24:52;93913.44;;;7.16;59.89
6389;BME280;3227;42.654;23.360;2023-02-04T09:27:19;93916.81;;;7.19;60.04
6389;BME280;3227;42.654;23.360;2023-02-04T09:29:46;93896.41;;;7.07;59.16
6389;BME280;3227;42.654;23.360;2023-02-04T09:32:13;93918.53;;;7.22;59.50
6389;BME280;3227;42.654;23.360;2023-02-04T09:34:43;93910.88;;;7.19;59.84
6389;BME280;3227;42.654;23.360;2023-02-04T09:37:10;93914.28;;;7.21;60.05
6389;BME280;3227;42.654;23.360;2023-02-04T09:39:37;93908.25;;;6.96;61.65
6389;BME280;3227;42.654;23.360;2023-02-04T09:42:04;93890.41;;;6.88;63.59
6389;BME280;3227;42.654;23.360;2023-02-04T09:44:31;93909.16;;;7.06;63.91
6389;BME280;3227;42.654;23.360;2023-02-04T09:46:59;93904.88;;;7.00;65.60
6389;BME280;3227;42.654;23.360;2023-02-04T09:49:27;93895.44;;;6.78;65.91
6389;BME280;3227;42.654;23.360;2023-02-04T09:51:55;93879.31;;;6.76;68.39
6389;BME280;3227;42.654;23.360;2023-02-04T09:54:23;93902.31;;;6.90;66.96
6389;BME280;3227;42.654;23.360;2023-02-04T09:56:51;93860.66;;;6.80;68.08
6389;BME280;3227;42.654;23.360;2023-02-04T09:59:19;93888.75;;;6.98;68.67
6389;BME280;3227;42.654;23.360;2023-02-04T10:01:47;93881.13;;;7.09;68.77
6389;BME280;3227;42.654;23.360;2023-02-04T10:04:17;93883.66;;;7.04;68.57
6389;BME280;3227;42.654;23.360;2023-02-04T10:06:45;93888.75;;;7.00;68.28
6389;BME280;3227;42.654;23.360;2023-02-04T10:09:15;93873.44;;;6.95;68.51
6389;BME280;3227;42.654;23.360;2023-02-04T10:11:44;93871.75;;;7.02;67.81
6389;BME280;3227;42.654;23.360;2023-02-04T10:14:13;93868.41;;;7.12;67.33
6389;BME280;3227;42.654;23.360;2023-02-04T10:16:42;93861.59;;;7.11;67.45
6389;BME280;3227;42.654;23.360;2023-02-04T10:19:13;93862.44;;;7.04;66.60
6389;BME280;3227;42.654;23.360;2023-02-04T10:21:42;93869.25;;;7.11;66.97
6389;BME280;3227;42.654;23.360;2023-02-04T10:24:15;93816.56;;;6.81;66.37
6389;BME280;3227;42.654;23.360;2023-02-04T10:26:42;93859.06;;;7.20;66.77
6389;BME280;3227;42.654;23.360;2023-02-04T10:29:14;93854.00;;;7.21;66.70
6389;BME280;3227;42.654;23.360;2023-02-04T10:31:42;93843.78;;;7.15;66.95
6389;BME280;3227;42.654;23.360;2023-02-04T10:34:12;93846.31;;;7.05;66.48
6389;BME280;3227;42.654;23.360;2023-02-04T10:36:41;93855.69;;;7.15;66.75
6389;BME280;3227;42.654;23.360;2023-02-04T10:39:11;93859.91;;;7.07;66.25
6389;BME280;3227;42.654;23.360;2023-02-04T10:41:44;93849.69;;;6.95;68.27
6389;BME280;3227;42.654;23.360;2023-02-04T10:44:12;93811.41;;;6.69;70.01
6389;BME280;3227;42.654;23.360;2023-02-04T10:46:40;93825.91;;;6.93;69.65
6389;BME280;3227;42.654;23.360;2023-02-04T10:49:17;93848.88;;;7.11;71.09
6389;BME280;3227;42.654;23.360;2023-02-04T10:51:45;93842.06;;;7.02;71.42
6389;BME280;3227;42.654;23.360;2023-02-04T10:54:12;93830.16;;;6.89;72.62
6389;BME280;3227;42.654;23.360;2023-02-04T10:57:06;93837.81;;;6.98;72.56
6389;BME280;3227;42.654;23.360;2023-02-04T10:59:34;93826.78;;;6.98;72.63
6389;BME280;3227;42.654;23.360;2023-02-04T11:02:23;93796.19;;;6.88;73.58
6389;BME280;3227;42.654;23.360;2023-02-04T11:04:55;93828.47;;;7.11;72.96
6389;BME280;3227;42.654;23.360;2023-02-04T11:07:28;93791.91;;;6.75;72.17
6389;BME280;3227;42.654;23.360;2023-02-04T11:09:55;93799.59;;;6.94;73.11
6389;BME280;3227;42.654;23.360;2023-02-04T11:12:36;93798.78;;;7.14;72.05
6389;BME280;3227;42.654;23.360;2023-02-04T11:15:05;93825.97;;;7.40;71.21
6389;BME280;3227;42.654;23.360;2023-02-04T11:17:33;93807.25;;;7.18;70.29
6389;BME280;3227;42.654;23.360;2023-02-04T11:20:13;93750.38;;;6.92;69.36
6389;BME280;3227;42.654;23.360;2023-02-04T11:22:41;93821.75;;;7.40;69.47
6389;BME280;3227;42.654;23.360;2023-02-04T11:25:29;93823.44;;;7.56;69.22
6389;BME280;3227;42.654;23.360;2023-02-04T11:27:58;93814.94;;;7.54;68.67
6389;BME280;3227;42.654;23.360;2023-02-04T11:30:30;93822.56;;;7.68;68.83
6389;BME280;3227;42.654;23.360;2023-02-04T11:33:01;93796.22;;;7.66;67.50
6389;BME280;3227;42.654;23.360;2023-02-04T11:35:28;93822.56;;;7.76;67.18
6389;BME280;3227;42.654;23.360;2023-02-04T11:37:56;93823.44;;;7.53;68.82
6389;BME280;3227;42.654;23.360;2023-02-04T11:40:29;93824.28;;;7.39;68.36
6389;BME280;3227;42.654;23.360;2023-02-04T11:43:00;93820.03;;;7.32;69.46
6389;BME280;3227;42.654;23.360;2023-02-04T11:45:30;93801.31;;;7.13;70.26
6389;BME280;3227;42.654;23.360;2023-02-04T11:47:59;93787.72;;;7.00;70.33
6389;BME280;3227;42.654;23.360;2023-02-04T11:50:29;93836.16;;;7.20;71.57
6389;BME280;3227;42.654;23.360;2023-02-04T11:52:56;93834.41;;;7.04;72.01
6389;BME280;3227;42.654;23.360;2023-02-04T11:55:24;93830.19;;;7.10;72.48
6389;BME280;3227;42.654;23.360;2023-02-04T11:57:53;93819.13;;;7.10;71.78
6389;BME280;3227;42.654;23.360;2023-02-04T12:00:23;93774.94;;;6.85;72.21
6389;BME280;3227;42.654;23.360;2023-02-04T12:02:54;93794.53;;;7.00;71.48
6389;BME280;3227;42.654;23.360;2023-02-04T12:05:28;93811.50;;;7.08;72.27
6389;BME280;3227;42.654;23.360;2023-02-04T12:08:09;93821.72;;;7.16;73.00
6389;BME280;3227;42.654;23.360;2023-02-04T12:10:36;93751.19;;;6.74;72.93
6389;BME280;3227;42.654;23.360;2023-02-04T12:13:11;93816.59;;;7.04;74.08
6389;BME280;3227;42.654;23.360;2023-02-04T12:15:40;93815.75;;;7.05;73.31
6389;BME280;3227;42.654;23.360;2023-02-04T12:18:12;93806.41;;;6.92;75.09
6389;BME280;3227;42.654;23.360;2023-02-04T12:20:41;93783.41;;;6.76;75.12
6389;BME280;3227;42.654;23.360;2023-02-04T12:23:08;93802.16;;;6.91;75.62
6389;BME280;3227;42.654;23.360;2023-02-04T12:25:34;93801.28;;;6.93;75.30
6389;BME280;3227;42.654;23.360;2023-02-04T12:28:01;93794.50;;;6.87;76.87
6389;BME280;3227;42.654;23.360;2023-02-04T12:30:28;93807.25;;;7.06;76.76
6389;BME280;3227;42.654;23.360;2023-02-04T12:32:56;93803.03;;;7.23;76.41
6389;BME280;3227;42.654;23.360;2023-02-04T12:35:23;93797.06;;;7.27;76.42
6389;BME280;3227;42.654;23.360;2023-02-04T12:37:50;93789.44;;;7.13;74.60
6389;BME280;3227;42.654;23.360;2023-02-04T12:40:19;93803.03;;;7.15;75.91
6389;BME280;3227;42.654;23.360;2023-02-04T12:42:46;93785.19;;;7.14;74.47
6389;BME280;3227;42.654;23.360;2023-02-04T12:45:15;93801.31;;;7.08;74.49
6389;BME280;3227;42.654;23.360;2023-02-04T12:47:42;93798.78;;;7.16;75.77
6389;BME280;3227;42.654;23.360;2023-02-04T12:50:12;93789.44;;;7.19;73.88
6389;BME280;3227;42.654;23.360;2023-02-04T12:52:39;93741.03;;;6.83;72.26
6389;BME280;3227;42.654;23.360;2023-02-04T12:55:07;93719.81;;;6.75;72.10
6389;BME280;3227;42.654;23.360;2023-02-04T12:57:34;93799.63;;;6.98;69.93
6389;BME280;3227;42.654;23.360;2023-02-04T13:00:01;93793.63;;;6.93;70.91
6389;BME280;3227;42.654;23.360;2023-02-04T13:02:28;93796.22;;;6.92;71.52
6389;BME280;3227;42.654;23.360;2023-02-04T13:04:55;93793.66;;;6.92;70.72
6389;BME280;3227;42.654;23.360;2023-02-04T13:07:23;93791.94;;;6.80;70.60
6389;BME280;3227;42.654;23.360;2023-02-04T13:09:50;93752.03;;;6.73;69.53
6389;BME280;3227;42.654;23.360;2023-02-04T13:12:17;93795.28;;;6.62;69.89
6389;BME280;3227;42.654;23.360;2023-02-04T13:14:44;93799.50;;;6.56;70.37
6389;BME280;3227;42.654;23.360;2023-02-04T13:17:10;93802.03;;;6.48;70.97
6389;BME280;3227;42.654;23.360;2023-02-04T13:19:37;93808.81;;;6.47;70.76
6389;BME280;3227;42.654;23.360;2023-02-04T13:22:04;93809.59;;;6.34;72.18
6389;BME280;3227;42.654;23.360;2023-02-04T13:24:33;93804.50;;;6.34;72.46
6389;BME280;3227;42.654;23.360;2023-02-04T13:27:00;93817.25;;;6.45;72.72